sensor_id;sensor_type;location;lat;lon;timestamp;temperature;humidity
7290;DHT22;63176;52.678;13.250;2024-02-26T00:01:40;2.10;99.90
7290;DHT22;63176;52.678;13.250;2024-02-26T00:04:06;2.00;99.90
7290;DHT22;63176;52.678;13.250;2024-02-26T00:06:31;2.10;99.90
7290;DHT22;63176;52.678;13.250;2024-02-26T00:08:58;2.10;99.90
7290;DHT22;63176;52.678;13.250;2024-02-26T00:11:24;2.00;99.90
7290;DHT22;63176;52.678;13.250;2024-02-26T00:13:49;1.90;99.90
7290;DHT22;63176;52.678;13.250;2024-02-26T00:16:15;1.90;99.90
7290;DHT22;63176;52.678;13.250;2024-02-26T00:18:41;2.00;99.90
7290;DHT22;63176;52.678;13.250;2024-02-26T00:21:06;1.90;99.90
7290;DHT22;63176;52.678;13.250;2024-02-26T00:23:32;1.90;99.90
7290;DHT22;63176;52.678;13.250;2024-02-26T00:25:58;1.80;99.90
7290;DHT22;63176;52.678;13.250;2024-02-26T00:28:23;1.70;99.90
7290;DHT22;63176;52.678;13.250;2024-02-26T00:30:50;1.70;99.90
7290;DHT22;63176;52.678;13.250;2024-02-26T00:33:21;1.70;99.90
7290;DHT22;63176;52.678;13.250;2024-02-26T00:35:47;1.60;99.90
7290;DHT22;63176;52.678;13.250;2024-02-26T00:38:12;1.60;99.90
7290;DHT22;63176;52.678;13.250;2024-02-26T00:40:38;1.70;99.90
7290;DHT22;63176;52.678;13.250;2024-02-26T00:43:04;1.60;99.90
7290;DHT22;63176;52.678;13.250;2024-02-26T00:45:29;1.60;99.90
7290;DHT22;63176;52.678;13.250;2024-02-26T00:47:57;1.70;99.90
7290;DHT22;63176;52.678;13.250;2024-02-26T00:50:23;1.80;99.90
7290;DHT22;63176;52.678;13.250;2024-02-26T00:52:49;1.80;99.90
7290;DHT22;63176;52.678;13.250;2024-02-26T00:55:14;1.70;99.90
7290;DHT22;63176;52.678;13.250;2024-02-26T00:57:40;1.70;99.90
7290;DHT22;63176;52.678;13.250;2024-02-26T01:00:06;1.60;99.90
7290;DHT22;63176;52.678;13.250;2024-02-26T01:02:34;1.60;99.90
7290;DHT22;63176;52.678;13.250;2024-02-26T01:05:00;1.50;99.90
7290;DHT22;63176;52.678;13.250;2024-02-26T01:07:25;1.60;99.90
7290;DHT22;63176;52.678;13.250;2024-02-26T01:09:51;1.50;99.90
7290;DHT22;63176;52.678;13.250;2024-02-26T01:12:17;1.50;99.90
7290;DHT22;63176;52.678;13.250;2024-02-26T01:14:42;1.50;99.90
7290;DHT22;63176;52.678;13.250;2024-02-26T01:17:08;1.40;99.90
7290;DHT22;63176;52.678;13.250;2024-02-26T01:19:34;1.60;99.90
7290;DHT22;63176;52.678;13.250;2024-02-26T01:21:59;1.70;99.90
7290;DHT22;63176;52.678;13.250;2024-02-26T01:24:25;1.70;99.90
7290;DHT22;63176;52.678;13.250;2024-02-26T01:26:51;1.60;99.90
7290;DHT22;63176;52.678;13.250;2024-02-26T01:29:17;1.60;99.90
7290;DHT22;63176;52.678;13.250;2024-02-26T01:31:42;1.50;99.90
7290;DHT22;63176;52.678;13.250;2024-02-26T01:34:08;1.50;99.90
7290;DHT22;63176;52.678;13.250;2024-02-26T01:36:34;1.50;99.90
7290;DHT22;63176;52.678;13.250;2024-02-26T01:38:59;1.40;99.90
7290;DHT22;63176;52.678;13.250;2024-02-26T01:41:25;1.50;99.90
7290;DHT22;63176;52.678;13.250;2024-02-26T01:43:51;1.50;99.90
7290;DHT22;63176;52.678;13.250;2024-02-26T01:46:17;1.50;99.90
7290;DHT22;63176;52.678;13.250;2024-02-26T01:48:44;1.50;99.90
7290;DHT22;63176;52.678;13.250;2024-02-26T01:51:12;1.40;99.90
7290;DHT22;63176;52.678;13.250;2024-02-26T01:53:40;1.30;99.90
7290;DHT22;63176;52.678;13.250;2024-02-26T01:56:06;1.30;99.90
7290;DHT22;63176;52.678;13.250;2024-02-26T01:58:32;1.20;99.90
7290;DHT22;63176;52.678;13.250;2024-02-26T02:00:59;1.30;99.90
7290;DHT22;63176;52.678;13.250;2024-02-26T02:03:25;1.30;99.90
7290;DHT22;63176;52.678;13.250;2024-02-26T02:05:51;1.30;99.90
7290;DHT22;63176;52.678;13.250;2024-02-26T02:08:16;1.20;99.90
7290;DHT22;63176;52.678;13.250;2024-02-26T02:10:42;1.20;99.90
7290;DHT22;63176;52.678;13.250;2024-02-26T02:13:08;1.20;99.90
7290;DHT22;63176;52.678;13.250;2024-02-26T02:15:34;1.20;99.90
7290;DHT22;63176;52.678;13.250;2024-02-26T02:18:00;1.20;99.90
7290;DHT22;63176;52.678;13.250;2024-02-26T02:20:35;1.30;99.90
7290;DHT22;63176;52.678;13.250;2024-02-26T02:23:01;1.40;99.90
7290;DHT22;63176;52.678;13.250;2024-02-26T02:25:27;1.30;99.90
7290;DHT22;63176;52.678;13.250;2024-02-26T02:27:55;1.20;99.90
7290;DHT22;63176;52.678;13.250;2024-02-26T02:30:25;1.10;99.90
7290;DHT22;63176;52.678;13.250;2024-02-26T02:32:52;1.10;99.90
7290;DHT22;63176;52.678;13.250;2024-02-26T02:35:18;1.30;99.90
7290;DHT22;63176;52.678;13.250;2024-02-26T02:37:44;1.20;99.90
7290;DHT22;63176;52.678;13.250;2024-02-26T02:40:10;1.10;99.90
7290;DHT22;63176;52.678;13.250;2024-02-26T02:42:35;1.00;99.90
7290;DHT22;63176;52.678;13.250;2024-02-26T02:45:01;1.20;99.90
7290;DHT22;63176;52.678;13.250;2024-02-26T02:47:27;1.30;99.90
7290;DHT22;63176;52.678;13.250;2024-02-26T02:49:52;1.40;99.90
7290;DHT22;63176;52.678;13.250;2024-02-26T02:52:18;1.30;99.90
7290;DHT22;63176;52.678;13.250;2024-02-26T02:54:44;1.20;99.90
7290;DHT22;63176;52.678;13.250;2024-02-26T02:57:10;1.10;99.90
7290;DHT22;63176;52.678;13.250;2024-02-26T02:59:37;1.20;99.90
7290;DHT22;63176;52.678;13.250;2024-02-26T03:02:02;1.00;99.90
7290;DHT22;63176;52.678;13.250;2024-02-26T03:04:28;1.00;99.90
7290;DHT22;63176;52.678;13.250;2024-02-26T03:06:55;1.10;99.90
7290;DHT22;63176;52.678;13.250;2024-02-26T03:09:20;1.10;99.90
7290;DHT22;63176;52.678;13.250;2024-02-26T03:11:46;1.00;99.90
7290;DHT22;63176;52.678;13.250;2024-02-26T03:14:12;1.00;99.90
7290;DHT22;63176;52.678;13.250;2024-02-26T03:16:37;1.00;99.90
7290;DHT22;63176;52.678;13.250;2024-02-26T03:19:03;0.90;99.90
7290;DHT22;63176;52.678;13.250;2024-02-26T03:21:29;0.80;99.90
7290;DHT22;63176;52.678;13.250;2024-02-26T03:23:57;0.90;99.90
7290;DHT22;63176;52.678;13.250;2024-02-26T03:26:23;0.90;99.90
7290;DHT22;63176;52.678;13.250;2024-02-26T03:28:49;0.90;99.90
7290;DHT22;63176;52.678;13.250;2024-02-26T03:31:14;0.90;99.90
7290;DHT22;63176;52.678;13.250;2024-02-26T03:33:40;0.90;99.90
7290;DHT22;63176;52.678;13.250;2024-02-26T03:36:06;0.80;99.90
7290;DHT22;63176;52.678;13.250;2024-02-26T03:38:33;0.80;99.90
7290;DHT22;63176;52.678;13.250;2024-02-26T03:40:58;0.90;99.90
7290;DHT22;63176;52.678;13.250;2024-02-26T03:43:24;0.90;99.90
7290;DHT22;63176;52.678;13.250;2024-02-26T03:45:50;0.80;99.90
7290;DHT22;63176;52.678;13.250;2024-02-26T03:48:15;0.80;99.90
7290;DHT22;63176;52.678;13.250;2024-02-26T03:50:41;0.80;99.90
7290;DHT22;63176;52.678;13.250;2024-02-26T03:53:07;0.80;99.90
7290;DHT22;63176;52.678;13.250;2024-02-26T03:55:34;0.80;99.90
7290;DHT22;63176;52.678;13.250;2024-02-26T03:58:00;0.70;99.90
7290;DHT22;63176;52.678;13.250;2024-02-26T04:00:26;0.70;99.90
7290;DHT22;63176;52.678;13.250;2024-02-26T04:02:54;0.70;99.90
7290;DHT22;63176;52.678;13.250;2024-02-26T04:05:20;0.70;99.90
7290;DHT22;63176;52.678;13.250;2024-02-26T04:07:45;0.70;99.90
7290;DHT22;63176;52.678;13.250;2024-02-26T04:10:12;0.60;99.90
7290;DHT22;63176;52.678;13.250;2024-02-26T04:12:43;0.60;99.90
7290;DHT22;63176;52.678;13.250;2024-02-26T04:15:10;0.60;99.90
7290;DHT22;63176;52.678;13.250;2024-02-26T04:17:36;0.60;99.90
7290;DHT22;63176;52.678;13.250;2024-02-26T04:20:03;0.60;99.90
7290;DHT22;63176;52.678;13.250;2024-02-26T04:22:32;0.60;99.90
7290;DHT22;63176;52.678;13.250;2024-02-26T04:24:58;0.70;99.90
7290;DHT22;63176;52.678;13.250;2024-02-26T04:27:23;0.90;99.90
7290;DHT22;63176;52.678;13.250;2024-02-26T04:29:49;0.80;99.90
7290;DHT22;63176;52.678;13.250;2024-02-26T04:32:15;0.70;99.90
7290;DHT22;63176;52.678;13.250;2024-02-26T04:34:40;0.70;99.90
7290;DHT22;63176;52.678;13.250;2024-02-26T04:37:07;0.70;99.90
7290;DHT22;63176;52.678;13.250;2024-02-26T04:39:33;0.60;99.90
7290;DHT22;63176;52.678;13.250;2024-02-26T04:41:58;0.60;99.90
7290;DHT22;63176;52.678;13.250;2024-02-26T04:44:24;0.60;99.90
7290;DHT22;63176;52.678;13.250;2024-02-26T04:46:50;0.60;99.90
7290;DHT22;63176;52.678;13.250;2024-02-26T04:49:16;0.60;99.90
7290;DHT22;63176;52.678;13.250;2024-02-26T04:51:42;0.60;99.90
7290;DHT22;63176;52.678;13.250;2024-02-26T04:54:07;0.60;99.90
7290;DHT22;63176;52.678;13.250;2024-02-26T04:56:33;0.60;99.90
7290;DHT22;63176;52.678;13.250;2024-02-26T04:58:59;0.60;99.90
7290;DHT22;63176;52.678;13.250;2024-02-26T05:01:24;0.60;99.90
7290;DHT22;63176;52.678;13.250;2024-02-26T05:03:50;0.60;99.90
7290;DHT22;63176;52.678;13.250;2024-02-26T05:06:16;0.60;99.90
7290;DHT22;63176;52.678;13.250;2024-02-26T05:08:41;0.50;99.90
7290;DHT22;63176;52.678;13.250;2024-02-26T05:11:09;0.50;99.90
7290;DHT22;63176;52.678;13.250;2024-02-26T05:13:35;0.50;99.90
7290;DHT22;63176;52.678;13.250;2024-02-26T05:16:00;0.50;99.90
7290;DHT22;63176;52.678;13.250;2024-02-26T05:18:27;0.60;99.90
7290;DHT22;63176;52.678;13.250;2024-02-26T05:20:52;0.60;99.90
7290;DHT22;63176;52.678;13.250;2024-02-26T05:23:18;0.60;99.90
7290;DHT22;63176;52.678;13.250;2024-02-26T05:25:44;0.70;99.90
7290;DHT22;63176;52.678;13.250;2024-02-26T05:28:12;0.70;99.90
7290;DHT22;63176;52.678;13.250;2024-02-26T05:30:38;0.70;99.90
7290;DHT22;63176;52.678;13.250;2024-02-26T05:33:05;0.70;99.90
7290;DHT22;63176;52.678;13.250;2024-02-26T05:35:31;0.70;99.90
7290;DHT22;63176;52.678;13.250;2024-02-26T05:37:56;0.60;99.90
7290;DHT22;63176;52.678;13.250;2024-02-26T05:40:22;0.50;99.90
7290;DHT22;63176;52.678;13.250;2024-02-26T05:42:48;0.60;99.90
7290;DHT22;63176;52.678;13.250;2024-02-26T05:45:14;0.60;99.90
7290;DHT22;63176;52.678;13.250;2024-02-26T05:47:40;0.60;99.90
7290;DHT22;63176;52.678;13.250;2024-02-26T05:50:11;0.70;99.90
7290;DHT22;63176;52.678;13.250;2024-02-26T05:52:38;0.60;99.90
7290;DHT22;63176;52.678;13.250;2024-02-26T05:55:05;0.60;99.90
7290;DHT22;63176;52.678;13.250;2024-02-26T05:57:31;0.60;99.90
7290;DHT22;63176;52.678;13.250;2024-02-26T05:59:57;0.70;99.90
7290;DHT22;63176;52.678;13.250;2024-02-26T06:02:26;0.70;99.90
7290;DHT22;63176;52.678;13.250;2024-02-26T06:04:51;0.70;99.90
7290;DHT22;63176;52.678;13.250;2024-02-26T06:07:17;0.70;99.90
7290;DHT22;63176;52.678;13.250;2024-02-26T06:09:43;0.70;99.90
7290;DHT22;63176;52.678;13.250;2024-02-26T06:12:09;0.60;99.90
7290;DHT22;63176;52.678;13.250;2024-02-26T06:14:34;0.70;99.90
7290;DHT22;63176;52.678;13.250;2024-02-26T06:17:00;0.70;99.90
7290;DHT22;63176;52.678;13.250;2024-02-26T06:19:25;0.70;99.90
7290;DHT22;63176;52.678;13.250;2024-02-26T06:21:51;0.70;99.90
7290;DHT22;63176;52.678;13.250;2024-02-26T06:24:17;0.70;99.90
7290;DHT22;63176;52.678;13.250;2024-02-26T06:26:42;0.60;99.90
7290;DHT22;63176;52.678;13.250;2024-02-26T06:29:08;0.60;99.90
7290;DHT22;63176;52.678;13.250;2024-02-26T06:31:34;0.60;99.90
7290;DHT22;63176;52.678;13.250;2024-02-26T06:33:59;0.60;99.90
7290;DHT22;63176;52.678;13.250;2024-02-26T06:36:25;0.60;99.90
7290;DHT22;63176;52.678;13.250;2024-02-26T06:38:51;0.70;99.90
7290;DHT22;63176;52.678;13.250;2024-02-26T06:41:19;0.70;99.90
7290;DHT22;63176;52.678;13.250;2024-02-26T06:43:46;0.70;99.90
7290;DHT22;63176;52.678;13.250;2024-02-26T06:46:11;0.80;99.90
7290;DHT22;63176;52.678;13.250;2024-02-26T06:48:37;0.80;99.90
7290;DHT22;63176;52.678;13.250;2024-02-26T06:51:03;0.90;99.90
7290;DHT22;63176;52.678;13.250;2024-02-26T06:53:29;1.00;99.90
7290;DHT22;63176;52.678;13.250;2024-02-26T06:55:54;1.10;99.90
7290;DHT22;63176;52.678;13.250;2024-02-26T06:58:20;1.20;99.90
7290;DHT22;63176;52.678;13.250;2024-02-26T07:00:46;1.30;99.90
7290;DHT22;63176;52.678;13.250;2024-02-26T07:03:11;1.30;99.90
7290;DHT22;63176;52.678;13.250;2024-02-26T07:05:39;1.40;99.90
7290;DHT22;63176;52.678;13.250;2024-02-26T07:08:05;1.50;99.90
7290;DHT22;63176;52.678;13.250;2024-02-26T07:10:31;1.60;99.90
7290;DHT22;63176;52.678;13.250;2024-02-26T07:12:56;1.70;99.90
7290;DHT22;63176;52.678;13.250;2024-02-26T07:15:22;1.80;99.90
7290;DHT22;63176;52.678;13.250;2024-02-26T07:17:48;1.90;99.90
7290;DHT22;63176;52.678;13.250;2024-02-26T07:20:15;2.00;99.90
7290;DHT22;63176;52.678;13.250;2024-02-26T07:22:41;2.00;99.90
7290;DHT22;63176;52.678;13.250;2024-02-26T07:25:08;2.10;99.90
7290;DHT22;63176;52.678;13.250;2024-02-26T07:27:34;2.10;99.90
7290;DHT22;63176;52.678;13.250;2024-02-26T07:30:00;2.20;99.90
7290;DHT22;63176;52.678;13.250;2024-02-26T07:32:26;2.30;99.90
7290;DHT22;63176;52.678;13.250;2024-02-26T07:34:51;2.40;99.90
7290;DHT22;63176;52.678;13.250;2024-02-26T07:37:17;2.40;99.90
7290;DHT22;63176;52.678;13.250;2024-02-26T07:39:43;2.50;99.90
7290;DHT22;63176;52.678;13.250;2024-02-26T07:42:08;2.70;99.90
7290;DHT22;63176;52.678;13.250;2024-02-26T07:44:35;3.00;99.90
7290;DHT22;63176;52.678;13.250;2024-02-26T07:47:00;3.20;99.90
7290;DHT22;63176;52.678;13.250;2024-02-26T07:49:26;3.30;99.90
7290;DHT22;63176;52.678;13.250;2024-02-26T07:51:52;3.40;99.90
7290;DHT22;63176;52.678;13.250;2024-02-26T07:54:17;3.40;99.90
7290;DHT22;63176;52.678;13.250;2024-02-26T07:56:44;3.40;99.90
7290;DHT22;63176;52.678;13.250;2024-02-26T07:59:10;3.40;99.90
7290;DHT22;63176;52.678;13.250;2024-02-26T08:01:36;3.40;99.90
7290;DHT22;63176;52.678;13.250;2024-02-26T08:04:04;3.50;99.90
7290;DHT22;63176;52.678;13.250;2024-02-26T08:06:30;3.60;99.90
7290;DHT22;63176;52.678;13.250;2024-02-26T08:08:56;3.70;99.90
7290;DHT22;63176;52.678;13.250;2024-02-26T08:11:21;3.70;99.90
7290;DHT22;63176;52.678;13.250;2024-02-26T08:13:47;3.90;99.90
7290;DHT22;63176;52.678;13.250;2024-02-26T08:16:13;4.00;99.90
7290;DHT22;63176;52.678;13.250;2024-02-26T08:18:38;4.10;99.90
7290;DHT22;63176;52.678;13.250;2024-02-26T08:21:04;4.20;99.90
7290;DHT22;63176;52.678;13.250;2024-02-26T08:23:30;4.30;99.90
7290;DHT22;63176;52.678;13.250;2024-02-26T08:25:57;4.40;99.90
7290;DHT22;63176;52.678;13.250;2024-02-26T08:28:22;4.50;99.90
7290;DHT22;63176;52.678;13.250;2024-02-26T08:30:48;4.60;99.90
7290;DHT22;63176;52.678;13.250;2024-02-26T08:33:14;4.70;99.90
7290;DHT22;63176;52.678;13.250;2024-02-26T08:35:40;4.80;99.90
7290;DHT22;63176;52.678;13.250;2024-02-26T08:38:06;4.90;99.90
7290;DHT22;63176;52.678;13.250;2024-02-26T08:40:32;5.10;99.90
7290;DHT22;63176;52.678;13.250;2024-02-26T08:42:58;5.20;99.90
7290;DHT22;63176;52.678;13.250;2024-02-26T08:45:23;5.30;99.90
7290;DHT22;63176;52.678;13.250;2024-02-26T08:47:49;5.50;99.90
7290;DHT22;63176;52.678;13.250;2024-02-26T08:50:15;5.60;99.90
7290;DHT22;63176;52.678;13.250;2024-02-26T08:52:41;5.80;99.90
7290;DHT22;63176;52.678;13.250;2024-02-26T08:55:07;5.80;99.90
7290;DHT22;63176;52.678;13.250;2024-02-26T08:57:34;5.90;99.90
7290;DHT22;63176;52.678;13.250;2024-02-26T09:00:00;5.90;99.90
7290;DHT22;63176;52.678;13.250;2024-02-26T09:02:26;6.00;99.90
7290;DHT22;63176;52.678;13.250;2024-02-26T09:04:52;6.00;99.90
7290;DHT22;63176;52.678;13.250;2024-02-26T09:07:20;6.10;99.90
7290;DHT22;63176;52.678;13.250;2024-02-26T09:09:46;6.20;99.90
7290;DHT22;63176;52.678;13.250;2024-02-26T09:12:12;6.30;99.90
7290;DHT22;63176;52.678;13.250;2024-02-26T09:14:37;6.40;99.90
7290;DHT22;63176;52.678;13.250;2024-02-26T09:17:03;6.50;99.90
7290;DHT22;63176;52.678;13.250;2024-02-26T09:19:29;6.60;99.90
7290;DHT22;63176;52.678;13.250;2024-02-26T09:21:55;6.70;99.90
7290;DHT22;63176;52.678;13.250;2024-02-26T09:24:23;6.70;99.90
7290;DHT22;63176;52.678;13.250;2024-02-26T09:26:50;6.90;99.90
7290;DHT22;63176;52.678;13.250;2024-02-26T09:29:15;7.00;99.90
7290;DHT22;63176;52.678;13.250;2024-02-26T09:31:41;7.20;99.90
7290;DHT22;63176;52.678;13.250;2024-02-26T09:34:07;7.40;99.90
7290;DHT22;63176;52.678;13.250;2024-02-26T09:36:36;7.60;99.90
7290;DHT22;63176;52.678;13.250;2024-02-26T09:39:01;7.80;99.90
7290;DHT22;63176;52.678;13.250;2024-02-26T09:41:28;8.00;99.90
7290;DHT22;63176;52.678;13.250;2024-02-26T09:43:57;8.30;99.90
7290;DHT22;63176;52.678;13.250;2024-02-26T09:46:26;8.60;99.90
7290;DHT22;63176;52.678;13.250;2024-02-26T09:48:52;8.90;99.90
7290;DHT22;63176;52.678;13.250;2024-02-26T09:51:18;9.20;99.90
7290;DHT22;63176;52.678;13.250;2024-02-26T09:53:45;9.30;99.90
7290;DHT22;63176;52.678;13.250;2024-02-26T09:56:12;9.50;99.90
7290;DHT22;63176;52.678;13.250;2024-02-26T09:58:41;9.70;99.90
7290;DHT22;63176;52.678;13.250;2024-02-26T10:01:11;9.90;99.90
7290;DHT22;63176;52.678;13.250;2024-02-26T10:03:41;10.00;99.90
7290;DHT22;63176;52.678;13.250;2024-02-26T10:06:08;10.10;99.90
7290;DHT22;63176;52.678;13.250;2024-02-26T10:08:35;10.20;99.90
7290;DHT22;63176;52.678;13.250;2024-02-26T10:11:01;10.30;99.90
7290;DHT22;63176;52.678;13.250;2024-02-26T10:13:26;10.30;99.90
7290;DHT22;63176;52.678;13.250;2024-02-26T10:15:52;10.40;99.90
7290;DHT22;63176;52.678;13.250;2024-02-26T10:18:18;10.40;99.90
7290;DHT22;63176;52.678;13.250;2024-02-26T10:21:05;10.30;99.90
7290;DHT22;63176;52.678;13.250;2024-02-26T10:23:30;10.20;99.90
7290;DHT22;63176;52.678;13.250;2024-02-26T10:25:56;10.20;99.90
7290;DHT22;63176;52.678;13.250;2024-02-26T10:28:23;10.30;99.90
7290;DHT22;63176;52.678;13.250;2024-02-26T10:30:48;10.40;99.90
7290;DHT22;63176;52.678;13.250;2024-02-26T10:33:14;10.60;99.90
7290;DHT22;63176;52.678;13.250;2024-02-26T10:35:45;10.80;99.90
7290;DHT22;63176;52.678;13.250;2024-02-26T10:38:12;10.90;99.90
7290;DHT22;63176;52.678;13.250;2024-02-26T10:40:38;11.10;99.90
7290;DHT22;63176;52.678;13.250;2024-02-26T10:43:03;11.20;99.90
7290;DHT22;63176;52.678;13.250;2024-02-26T10:45:29;11.30;99.90
7290;DHT22;63176;52.678;13.250;2024-02-26T10:47:55;11.40;99.90
7290;DHT22;63176;52.678;13.250;2024-02-26T10:50:20;11.50;99.90
7290;DHT22;63176;52.678;13.250;2024-02-26T10:52:46;11.60;99.90
7290;DHT22;63176;52.678;13.250;2024-02-26T10:55:16;11.70;99.90
7290;DHT22;63176;52.678;13.250;2024-02-26T10:57:46;11.60;99.90
7290;DHT22;63176;52.678;13.250;2024-02-26T11:00:15;11.50;99.90
7290;DHT22;63176;52.678;13.250;2024-02-26T11:02:41;11.50;99.90
7290;DHT22;63176;52.678;13.250;2024-02-26T11:05:07;11.40;99.90
7290;DHT22;63176;52.678;13.250;2024-02-26T11:07:34;11.40;99.90
7290;DHT22;63176;52.678;13.250;2024-02-26T11:10:03;11.40;99.90
7290;DHT22;63176;52.678;13.250;2024-02-26T11:12:30;11.40;99.90
7290;DHT22;63176;52.678;13.250;2024-02-26T11:14:57;11.40;99.90
7290;DHT22;63176;52.678;13.250;2024-02-26T11:17:27;11.50;99.90
7290;DHT22;63176;52.678;13.250;2024-02-26T11:19:57;11.50;99.90
7290;DHT22;63176;52.678;13.250;2024-02-26T11:22:27;11.60;99.90
7290;DHT22;63176;52.678;13.250;2024-02-26T11:24:56;11.50;99.90
7290;DHT22;63176;52.678;13.250;2024-02-26T11:27:30;11.50;99.90
7290;DHT22;63176;52.678;13.250;2024-02-26T11:29:59;11.50;99.90
7290;DHT22;63176;52.678;13.250;2024-02-26T11:32:27;11.50;99.90
7290;DHT22;63176;52.678;13.250;2024-02-26T11:34:56;11.50;99.90
7290;DHT22;63176;52.678;13.250;2024-02-26T11:37:22;11.60;99.90
7290;DHT22;63176;52.678;13.250;2024-02-26T11:39:48;11.70;99.90
7290;DHT22;63176;52.678;13.250;2024-02-26T11:42:16;11.60;99.90
7290;DHT22;63176;52.678;13.250;2024-02-26T11:44:42;11.60;99.90
7290;DHT22;63176;52.678;13.250;2024-02-26T11:47:22;11.50;99.90
7290;DHT22;63176;52.678;13.250;2024-02-26T11:49:48;11.50;99.90
7290;DHT22;63176;52.678;13.250;2024-02-26T11:52:15;11.40;99.90
7290;DHT22;63176;52.678;13.250;2024-02-26T12:00:15;11.40;99.90
7290;DHT22;63176;52.678;13.250;2024-02-26T12:05:20;11.40;99.90
7290;DHT22;63176;52.678;13.250;2024-02-26T12:07:53;11.40;99.90
7290;DHT22;63176;52.678;13.250;2024-02-26T12:10:26;11.30;99.90
7290;DHT22;63176;52.678;13.250;2024-02-26T12:13:25;11.40;99.90
7290;DHT22;63176;52.678;13.250;2024-02-26T12:15:56;11.30;99.90
7290;DHT22;63176;52.678;13.250;2024-02-26T12:18:23;11.30;99.90
7290;DHT22;63176;52.678;13.250;2024-02-26T12:21:02;11.30;99.90
7290;DHT22;63176;52.678;13.250;2024-02-26T12:23:29;11.30;99.90
7290;DHT22;63176;52.678;13.250;2024-02-26T12:25:59;11.30;99.90
7290;DHT22;63176;52.678;13.250;2024-02-26T12:28:31;11.30;99.90
7290;DHT22;63176;52.678;13.250;2024-02-26T12:30:57;11.30;99.90
7290;DHT22;63176;52.678;13.250;2024-02-26T12:33:25;11.40;99.90
7290;DHT22;63176;52.678;13.250;2024-02-26T12:35:52;11.40;99.90
7290;DHT22;63176;52.678;13.250;2024-02-26T12:38:18;11.40;99.90
7290;DHT22;63176;52.678;13.250;2024-02-26T12:40:44;11.50;99.90
7290;DHT22;63176;52.678;13.250;2024-02-26T12:43:10;11.50;99.90
7290;DHT22;63176;52.678;13.250;2024-02-26T12:45:42;11.60;99.90
7290;DHT22;63176;52.678;13.250;2024-02-26T12:48:09;11.60;99.90
7290;DHT22;63176;52.678;13.250;2024-02-26T12:50:35;11.70;99.90
7290;DHT22;63176;52.678;13.250;2024-02-26T12:53:00;11.70;99.90
7290;DHT22;63176;52.678;13.250;2024-02-26T12:55:27;11.80;99.90
7290;DHT22;63176;52.678;13.250;2024-02-26T12:57:53;11.80;99.90
7290;DHT22;63176;52.678;13.250;2024-02-26T13:00:25;11.80;99.90
7290;DHT22;63176;52.678;13.250;2024-02-26T13:02:52;11.80;99.90
7290;DHT22;63176;52.678;13.250;2024-02-26T13:05:21;11.80;99.90
7290;DHT22;63176;52.678;13.250;2024-02-26T13:07:48;11.80;99.90
7290;DHT22;63176;52.678;13.250;2024-02-26T13:10:14;11.80;99.90
7290;DHT22;63176;52.678;13.250;2024-02-26T13:12:44;11.80;99.90
7290;DHT22;63176;52.678;13.250;2024-02-26T13:15:15;11.80;99.90
7290;DHT22;63176;52.678;13.250;2024-02-26T13:17:41;11.70;99.90
7290;DHT22;63176;52.678;13.250;2024-02-26T13:20:08;11.70;99.90
7290;DHT22;63176;52.678;13.250;2024-02-26T13:22:37;11.70;99.90
7290;DHT22;63176;52.678;13.250;2024-02-26T13:25:04;11.60;99.90
7290;DHT22;63176;52.678;13.250;2024-02-26T13:27:30;11.60;99.90
7290;DHT22;63176;52.678;13.250;2024-02-26T13:30:12;11.50;99.90
7290;DHT22;63176;52.678;13.250;2024-02-26T13:32:39;11.50;99.90
7290;DHT22;63176;52.678;13.250;2024-02-26T13:35:07;11.40;99.90
7290;DHT22;63176;52.678;13.250;2024-02-26T13:37:34;11.40;99.90
7290;DHT22;63176;52.678;13.250;2024-02-26T13:40:00;11.40;99.90
7290;DHT22;63176;52.678;13.250;2024-02-26T13:42:25;11.40;99.90
7290;DHT22;63176;52.678;13.250;2024-02-26T13:44:51;11.30;99.90
7290;DHT22;63176;52.678;13.250;2024-02-26T13:47:16;11.30;99.90
7290;DHT22;63176;52.678;13.250;2024-02-26T13:49:43;11.30;99.90
7290;DHT22;63176;52.678;13.250;2024-02-26T13:52:09;11.30;99.90
7290;DHT22;63176;52.678;13.250;2024-02-26T13:54:35;11.30;99.90
7290;DHT22;63176;52.678;13.250;2024-02-26T13:57:00;11.30;99.90
7290;DHT22;63176;52.678;13.250;2024-02-26T13:59:26;11.20;99.90
7290;DHT22;63176;52.678;13.250;2024-02-26T14:01:52;11.30;99.90
7290;DHT22;63176;52.678;13.250;2024-02-26T14:04:20;11.20;99.90
7290;DHT22;63176;52.678;13.250;2024-02-26T14:06:46;11.20;99.90
7290;DHT22;63176;52.678;13.250;2024-02-26T14:09:12;11.20;99.90
7290;DHT22;63176;52.678;13.250;2024-02-26T14:11:46;11.10;99.90
7290;DHT22;63176;52.678;13.250;2024-02-26T14:14:12;11.10;99.90
7290;DHT22;63176;52.678;13.250;2024-02-26T14:16:38;11.10;99.90
7290;DHT22;63176;52.678;13.250;2024-02-26T14:19:04;11.10;99.90
7290;DHT22;63176;52.678;13.250;2024-02-26T14:21:29;11.10;99.90
7290;DHT22;63176;52.678;13.250;2024-02-26T14:23:55;11.10;99.90
7290;DHT22;63176;52.678;13.250;2024-02-26T14:26:22;11.00;99.90
7290;DHT22;63176;52.678;13.250;2024-02-26T14:28:48;11.00;99.90
7290;DHT22;63176;52.678;13.250;2024-02-26T14:31:17;11.00;99.90
7290;DHT22;63176;52.678;13.250;2024-02-26T14:33:43;10.90;99.90
7290;DHT22;63176;52.678;13.250;2024-02-26T14:36:09;11.00;99.90
7290;DHT22;63176;52.678;13.250;2024-02-26T14:38:35;11.00;99.90
7290;DHT22;63176;52.678;13.250;2024-02-26T14:41:01;10.90;99.90
7290;DHT22;63176;52.678;13.250;2024-02-26T14:43:28;10.90;99.90
7290;DHT22;63176;52.678;13.250;2024-02-26T14:45:54;10.90;99.90
7290;DHT22;63176;52.678;13.250;2024-02-26T14:48:19;10.80;99.90
7290;DHT22;63176;52.678;13.250;2024-02-26T14:50:45;10.80;99.90
7290;DHT22;63176;52.678;13.250;2024-02-26T14:53:11;10.70;99.90
7290;DHT22;63176;52.678;13.250;2024-02-26T14:55:36;10.70;99.90
7290;DHT22;63176;52.678;13.250;2024-02-26T14:58:02;10.70;99.90
7290;DHT22;63176;52.678;13.250;2024-02-26T15:00:28;10.60;99.90
7290;DHT22;63176;52.678;13.250;2024-02-26T15:02:54;10.60;99.90
7290;DHT22;63176;52.678;13.250;2024-02-26T15:05:20;10.60;99.90
7290;DHT22;63176;52.678;13.250;2024-02-26T15:07:46;10.60;99.90
7290;DHT22;63176;52.678;13.250;2024-02-26T15:10:12;10.60;99.90
7290;DHT22;63176;52.678;13.250;2024-02-26T15:12:38;10.60;99.90
7290;DHT22;63176;52.678;13.250;2024-02-26T15:15:04;10.60;99.90
7290;DHT22;63176;52.678;13.250;2024-02-26T15:17:29;10.60;99.90
7290;DHT22;63176;52.678;13.250;2024-02-26T15:19:58;10.60;99.90
7290;DHT22;63176;52.678;13.250;2024-02-26T15:22:24;10.60;99.90
7290;DHT22;63176;52.678;13.250;2024-02-26T15:24:50;10.60;99.90
7290;DHT22;63176;52.678;13.250;2024-02-26T15:27:16;10.60;99.90
7290;DHT22;63176;52.678;13.250;2024-02-26T15:29:42;10.60;99.90
7290;DHT22;63176;52.678;13.250;2024-02-26T15:32:08;10.60;99.90
7290;DHT22;63176;52.678;13.250;2024-02-26T15:34:34;10.60;99.90
7290;DHT22;63176;52.678;13.250;2024-02-26T15:36:59;10.50;99.90
7290;DHT22;63176;52.678;13.250;2024-02-26T15:39:25;10.50;99.90
7290;DHT22;63176;52.678;13.250;2024-02-26T15:41:51;10.50;99.90
7290;DHT22;63176;52.678;13.250;2024-02-26T15:44:17;10.50;99.90